createdAt,value
2018-12-16T00:01:10.555Z,101928.77
2018-12-16T00:04:13.825Z,101932.59
2018-12-16T00:07:16.978Z,101931.87
2018-12-16T00:10:20.184Z,101917.78
2018-12-16T00:13:23.411Z,101908.73
2018-12-16T00:16:26.723Z,101910.89
2018-12-16T00:19:29.953Z,101891.37
2018-12-16T00:22:33.391Z,101896.52
2018-12-16T00:25:36.567Z,101888.39
2018-12-16T00:28:40.458Z,101894.13
2018-12-16T00:31:43.640Z,101892.82
2018-12-16T00:34:46.801Z,101896.08
2018-12-16T00:37:50.027Z,101893.11
2018-12-16T00:40:53.227Z,101888.69
2018-12-16T00:43:56.429Z,101892.82
2018-12-16T00:46:59.618Z,101885.17
2018-12-16T00:50:04.510Z,101885.59
2018-12-16T00:53:08.206Z,101888.39
2018-12-16T00:56:11.462Z,101886.19
2018-12-16T00:59:14.653Z,101882.84
2018-12-16T01:02:23.295Z,101887.61
2018-12-16T01:05:26.646Z,101883.70
2018-12-16T01:08:29.856Z,101878.06
2018-12-16T01:11:33.074Z,101882.17
2018-12-16T01:14:36.344Z,101882.39
2018-12-16T01:17:39.859Z,101886.67
2018-12-16T01:20:43.157Z,101889.11
2018-12-16T01:23:46.322Z,101888.66
2018-12-16T01:26:49.502Z,101881.50
2018-12-16T01:29:52.764Z,101875.98
2018-12-16T01:32:55.938Z,101880.73
2018-12-16T01:35:59.096Z,101886.19
2018-12-16T01:39:02.359Z,101878.93
2018-12-16T01:42:05.971Z,101880.95
2018-12-16T01:45:09.309Z,101880.87
2018-12-16T01:48:12.480Z,101871.60
2018-12-16T01:51:15.642Z,101874.16
2018-12-16T01:54:18.821Z,101865.20
2018-12-16T01:57:22.106Z,101868.61
2018-12-16T02:00:25.402Z,101862.48
2018-12-16T02:03:28.629Z,101856.42
2018-12-16T02:06:31.834Z,101856.30
2018-12-16T02:09:35.213Z,101852.38
2018-12-16T02:12:38.379Z,101844.09
2018-12-16T02:15:41.702Z,101843.09
2018-12-16T02:18:45.011Z,101835.80
2018-12-16T02:21:48.362Z,101826.66
2018-12-16T02:24:51.520Z,101816.97
2018-12-16T02:27:54.790Z,101818.52
2018-12-16T02:30:57.994Z,101809.14
2018-12-16T02:34:01.191Z,101796.32
2018-12-16T02:37:04.338Z,101788.41
2018-12-16T02:40:07.594Z,101787.95
2018-12-16T02:43:11.628Z,101780.73
2018-12-16T02:46:15.164Z,101776.08
2018-12-16T02:49:18.627Z,101769.59
2018-12-16T02:52:22.087Z,101766.48
2018-12-16T02:55:25.559Z,101771.72
2018-12-16T02:58:30.624Z,101757.14
2018-12-16T03:01:33.859Z,101757.80
2018-12-16T03:04:37.343Z,101749.39
2018-12-16T03:07:41.197Z,101750.73
2018-12-16T03:10:44.563Z,101748.13
2018-12-16T03:13:47.953Z,101744.58
2018-12-16T03:16:51.506Z,101737.03
2018-12-16T03:19:54.899Z,101743.59
2018-12-16T03:22:58.353Z,101746.53
2018-12-16T03:26:02.261Z,101733.35
2018-12-16T03:29:06.255Z,101725.11
2018-12-16T03:32:09.739Z,101717.97
2018-12-16T03:35:13.409Z,101710.42
2018-12-16T03:38:17.337Z,101700.19
2018-12-16T03:41:20.668Z,101690.89
2018-12-16T03:44:23.845Z,101685.91
2018-12-16T03:47:27.160Z,101683.50
2018-12-16T03:50:31.785Z,101676.89
2018-12-16T03:53:34.967Z,101664.36
2018-12-16T03:56:38.172Z,101662.98
2018-12-16T03:59:41.366Z,101655.91
2018-12-16T04:02:44.620Z,101654.42
2018-12-16T04:05:47.790Z,101644.13
2018-12-16T04:08:51.175Z,101638.64
2018-12-16T04:11:54.344Z,101640.95
2018-12-16T04:14:57.542Z,101641.77
2018-12-16T04:18:02.051Z,101645.54
2018-12-16T04:21:05.298Z,101636.63
2018-12-16T04:24:09.146Z,101634.88
2018-12-16T04:27:12.354Z,101632.64
2018-12-16T04:30:15.642Z,101615.73
2018-12-16T04:33:18.828Z,101612.89
2018-12-16T04:36:22.043Z,101609.08
2018-12-16T04:39:25.242Z,101599.37
2018-12-16T04:42:28.633Z,101593.50
2018-12-16T04:45:33.189Z,101578.02
2018-12-16T04:48:36.384Z,101572.17
2018-12-16T04:51:39.546Z,101565.70
2018-12-16T04:54:42.701Z,101567.64
2018-12-16T04:57:46.776Z,101571.72
2018-12-16T05:00:50.048Z,101554.11
2018-12-16T05:03:53.406Z,101552.25
2018-12-16T05:06:56.660Z,101538.68
2018-12-16T05:10:10.072Z,101537.72
2018-12-16T05:13:13.230Z,101538.55
2018-12-16T05:16:16.386Z,101527.30
2018-12-16T05:19:20.805Z,101529.98
2018-12-16T05:22:24.059Z,101530.91
2018-12-16T05:25:27.293Z,101536.58
2018-12-16T05:28:30.649Z,101538.02
2018-12-16T05:31:33.899Z,101544.55
2018-12-16T05:34:37.409Z,101543.59
2018-12-16T05:37:40.589Z,101545.14
2018-12-16T05:40:43.777Z,101542.02
2018-12-16T05:43:47.075Z,101547.27
2018-12-16T05:46:50.229Z,101536.27
2018-12-16T05:49:53.723Z,101536.96
2018-12-16T05:52:56.876Z,101539.22
2018-12-16T05:56:00.072Z,101531.38
2018-12-16T05:59:04.824Z,101527.57
2018-12-16T06:02:08.106Z,101527.29
2018-12-16T06:05:11.370Z,101535.09
2018-12-16T06:08:14.878Z,101528.22
2018-12-16T06:11:18.023Z,101522.58
2018-12-16T06:14:21.269Z,101517.25
2018-12-16T06:17:24.448Z,101526.73
2018-12-16T06:20:27.862Z,101514.87
2018-12-16T06:23:31.053Z,101516.86
2018-12-16T06:26:34.375Z,101513.24
2018-12-16T06:29:38.415Z,101503.05
2018-12-16T06:32:41.573Z,101506.96
2018-12-16T06:35:44.758Z,101506.03
2018-12-16T06:38:47.957Z,101500.03
2018-12-16T06:41:51.359Z,101492.47
2018-12-16T06:44:54.549Z,101487.24
2018-12-16T06:47:57.777Z,101488.10
2018-12-16T06:51:01.407Z,101480.44
2018-12-16T06:54:04.645Z,101485.25
2018-12-16T06:57:07.870Z,101481.95
2018-12-16T07:00:11.363Z,101470.16
2018-12-16T07:03:14.567Z,101472.98
2018-12-16T07:06:17.741Z,101472.66
2018-12-16T07:09:21.199Z,101463.89
2018-12-16T07:12:24.418Z,101472.22
2018-12-16T07:15:28.943Z,101469.43
2018-12-16T07:18:32.298Z,101474.38
2018-12-16T07:21:35.845Z,101478.22
2018-12-16T07:24:39.255Z,101477.75
2018-12-16T07:27:42.544Z,101462.22
2018-12-16T07:30:45.734Z,101469.72
2018-12-16T07:33:49.013Z,101476.95
2018-12-16T07:36:52.362Z,101460.78
2018-12-16T07:39:55.753Z,101463.39
2018-12-16T07:42:59.074Z,101459.02
2018-12-16T07:46:02.849Z,101457.06
2018-12-16T07:49:06.510Z,101454.30
2018-12-16T07:52:12.595Z,101444.88
2018-12-16T07:55:16.305Z,101441.45
2018-12-16T07:58:19.513Z,101440.94
2018-12-16T08:01:22.815Z,101445.90
2018-12-16T08:04:26.144Z,101456.14
2018-12-16T08:07:29.410Z,101461.13
2018-12-16T08:10:32.716Z,101457.86
2018-12-16T08:13:35.933Z,101462.68
2018-12-16T08:16:39.112Z,101465.43
2018-12-16T08:19:42.340Z,101463.84
2018-12-16T08:22:45.575Z,101457.82
2018-12-16T08:25:48.786Z,101454.65
2018-12-16T08:28:52.474Z,101458.88
2018-12-16T08:31:55.816Z,101450.61
2018-12-16T08:34:59.086Z,101448.97
2018-12-16T08:38:02.307Z,101444.84
2018-12-16T08:41:05.501Z,101439.22
2018-12-16T08:44:08.721Z,101437.27
2018-12-16T08:47:11.961Z,101425.47
2018-12-16T08:50:16.628Z,101428.34
2018-12-16T08:53:20.564Z,101423.48
2018-12-16T08:56:23.842Z,101410.30
2018-12-16T08:59:27.075Z,101411.98
2018-12-16T09:02:30.236Z,101410.98
2018-12-16T09:05:33.707Z,101404.43
2018-12-16T09:08:36.990Z,101411.70
2018-12-16T09:11:40.188Z,101410.44
2018-12-16T09:14:43.369Z,101404.28
2018-12-16T09:17:46.619Z,101407.80
2018-12-16T09:20:49.960Z,101405.61
2018-12-16T09:23:53.165Z,101401.14
2018-12-16T09:26:56.325Z,101398.50
2018-12-16T09:29:59.598Z,101395.11
2018-12-16T09:33:02.875Z,101394.56
2018-12-16T09:36:06.233Z,101401.22
2018-12-16T09:39:09.394Z,101389.72
2018-12-16T09:42:12.781Z,101390.53
2018-12-16T09:45:16.154Z,101392.52
2018-12-16T09:48:19.316Z,101385.06
2018-12-16T09:51:25.086Z,101374.80
2018-12-16T09:54:28.389Z,101391.71
2018-12-16T09:57:31.711Z,101383.56
2018-12-16T10:00:34.971Z,101379.05
2018-12-16T10:03:38.193Z,101377.04
2018-12-16T10:06:41.576Z,101368.08
2018-12-16T10:09:49.517Z,101367.45
2018-12-16T10:12:52.693Z,101358.56
2018-12-16T10:16:00.608Z,101360.05
2018-12-16T10:19:04.138Z,101354.98
2018-12-16T10:22:13.345Z,101352.53
2018-12-16T10:25:23.392Z,101353.62
2018-12-16T10:28:31.700Z,101342.30
2018-12-16T10:31:34.884Z,101341.68
2018-12-16T10:34:39.691Z,101343.46
2018-12-16T10:37:43.273Z,101339.22
2018-12-16T10:40:47.753Z,101352.85
2018-12-16T10:43:51.007Z,101352.36
2018-12-16T10:46:55.886Z,101344.23
2018-12-16T10:49:59.051Z,101347.98
2018-12-16T10:53:02.229Z,101345.39
2018-12-16T10:56:05.430Z,101333.70
2018-12-16T10:59:08.632Z,101332.25
2018-12-16T11:02:11.839Z,101329.36
2018-12-16T11:05:15.617Z,101320.86
2018-12-16T11:08:18.955Z,101317.47
2018-12-16T11:11:22.305Z,101315.56
2018-12-16T11:14:25.820Z,101315.28
2018-12-16T11:17:29.303Z,101320.03
2018-12-16T11:20:32.594Z,101320.94
2018-12-16T11:23:35.850Z,101314.66
2018-12-16T11:26:39.271Z,101303.58
2018-12-16T11:29:42.643Z,101303.69
2018-12-16T11:32:46.545Z,101303.38
2018-12-16T11:35:50.340Z,101294.98
2018-12-16T11:38:53.905Z,101285.73
2018-12-16T11:41:57.183Z,101278.63
2018-12-16T11:45:00.796Z,101289.70
2018-12-16T11:48:04.380Z,101287.37
2018-12-16T11:51:07.723Z,101286.97
2018-12-16T11:54:10.906Z,101281.91
2018-12-16T11:57:14.278Z,101285.14
2018-12-16T12:00:17.474Z,101282.10
2018-12-16T12:03:20.665Z,101291.22
2018-12-16T12:06:23.852Z,101279.81
2018-12-16T12:09:27.032Z,101281.94
2018-12-16T12:12:30.220Z,101275.86
2018-12-16T12:15:33.486Z,101269.12
2018-12-16T12:18:36.729Z,101263.30
2018-12-16T12:21:39.909Z,101262.41
2018-12-16T12:24:43.118Z,101255.19
2018-12-16T12:27:47.512Z,101254.39
2018-12-16T12:30:51.020Z,101260.43
2018-12-16T12:33:54.239Z,101255.40
2018-12-16T12:36:57.537Z,101247.75
2018-12-16T12:40:00.718Z,101249.81
2018-12-16T12:43:04.061Z,101255.11
2018-12-16T12:46:07.231Z,101243.73
2018-12-16T12:49:10.400Z,101243.35
2018-12-16T12:52:13.601Z,101234.07
2018-12-16T12:55:16.811Z,101231.97
2018-12-16T12:58:20.024Z,101233.84
2018-12-16T13:01:23.292Z,101234.08
2018-12-16T13:04:26.503Z,101234.08
2018-12-16T13:07:30.639Z,101226.31
2018-12-16T13:10:33.892Z,101231.77
2018-12-16T13:13:37.085Z,101232.55
2018-12-16T13:16:40.514Z,101237.70
2018-12-16T13:19:43.713Z,101233.87
2018-12-16T13:22:46.923Z,101234.19
2018-12-16T13:26:01.376Z,101228.31
2018-12-16T13:29:04.643Z,101229.16
2018-12-16T13:32:08.917Z,101225.53
2018-12-16T13:35:12.786Z,101221.60
2018-12-16T13:38:16.513Z,101227.64
2018-12-16T13:41:19.826Z,101236.39
2018-12-16T13:44:23.060Z,101235.77
2018-12-16T13:47:28.102Z,101230.44
2018-12-16T13:50:32.330Z,101229.25
2018-12-16T13:53:36.510Z,101233.06
2018-12-16T13:56:39.757Z,101237.19
2018-12-16T13:59:42.974Z,101235.16
2018-12-16T14:02:46.150Z,101232.97
2018-12-16T14:05:49.439Z,101230.64
2018-12-16T14:08:52.646Z,101230.16
2018-12-16T14:11:56.161Z,101228.09
2018-12-16T14:14:59.418Z,101230.71
2018-12-16T14:18:02.623Z,101232.88
2018-12-16T14:21:05.810Z,101225.82
2018-12-16T14:24:09.128Z,101224.67
2018-12-16T14:27:12.514Z,101218.92
2018-12-16T14:30:15.797Z,101213.29
2018-12-16T14:33:19.060Z,101217.84
2018-12-16T14:36:22.322Z,101216.45
2018-12-16T14:39:26.216Z,101213.50
2018-12-16T14:42:29.653Z,101212.01
2018-12-16T14:45:32.874Z,101204.91
2018-12-16T14:48:36.086Z,101213.79
2018-12-16T14:51:39.424Z,101204.11
2018-12-16T14:54:43.223Z,101211.30
2018-12-16T14:57:46.440Z,101208.38
2018-12-16T15:00:49.724Z,101206.52
2018-12-16T15:03:52.899Z,101208.77
2018-12-16T15:06:56.095Z,101207.31
2018-12-16T15:10:00.858Z,101215.91
2018-12-16T15:13:04.230Z,101221.51
2018-12-16T15:16:10.168Z,101221.48
2018-12-16T15:19:14.330Z,101221.39
2018-12-16T15:22:17.516Z,101224.50
2018-12-16T15:25:20.721Z,101219.70
2018-12-16T15:28:23.905Z,101217.48
2018-12-16T15:31:27.153Z,101217.95
2018-12-16T15:34:30.420Z,101209.61
2018-12-16T15:37:33.686Z,101209.83
2018-12-16T15:40:37.488Z,101217.67
2018-12-16T15:43:41.579Z,101212.17
2018-12-16T15:46:45.437Z,101221.86
2018-12-16T15:49:48.699Z,101219.59
2018-12-16T15:52:51.888Z,101212.58
2018-12-16T15:55:55.099Z,101213.81
2018-12-16T15:58:59.647Z,101214.39
2018-12-16T16:02:03.035Z,101216.98
2018-12-16T16:05:06.536Z,101218.99
2018-12-16T16:08:16.252Z,101216.09
2018-12-16T16:11:15.580Z,101220.12
2018-12-16T16:14:18.804Z,101217.11
2018-12-16T16:17:22.090Z,101215.34
2018-12-16T16:20:25.367Z,101219.64
2018-12-16T16:23:28.777Z,101220.58
2018-12-16T16:26:31.959Z,101226.31
2018-12-16T16:29:35.252Z,101226.89
2018-12-16T16:32:38.543Z,101228.48
2018-12-16T16:35:41.817Z,101222.64
2018-12-16T16:38:45.218Z,101224.73
2018-12-16T16:41:51.552Z,101229.98
2018-12-16T16:44:54.804Z,101239.35
2018-12-16T16:48:00.161Z,101229.58
2018-12-16T16:51:03.634Z,101232.81
2018-12-16T16:54:06.978Z,101223.13
2018-12-16T16:57:10.169Z,101227.56
2018-12-16T17:00:14.028Z,101231.11
2018-12-16T17:03:19.110Z,101235.92
2018-12-16T17:06:23.876Z,101239.41
2018-12-16T17:09:27.135Z,101227.97
2018-12-16T17:12:30.345Z,101230.09
2018-12-16T17:15:34.109Z,101227.84
2018-12-16T17:18:38.182Z,101233.58
2018-12-16T17:21:42.355Z,101244.06
2018-12-16T17:24:45.674Z,101238.62
2018-12-16T17:27:48.948Z,101241.67
2018-12-16T17:30:52.346Z,101246.37
2018-12-16T17:33:55.547Z,101248.97
2018-12-16T17:36:58.943Z,101254.03
2018-12-16T17:40:02.439Z,101249.72
2018-12-16T17:43:05.746Z,101249.72
2018-12-16T17:46:08.938Z,101243.19
2018-12-16T17:49:12.156Z,101241.73
2018-12-16T17:52:15.352Z,101247.58
2018-12-16T17:55:18.634Z,101256.70
2018-12-16T17:58:22.067Z,101260.16
2018-12-16T18:01:25.458Z,101259.77
2018-12-16T18:04:28.741Z,101264.06
2018-12-16T18:07:32.061Z,101265.73
2018-12-16T18:10:35.470Z,101262.28
2018-12-16T18:13:39.870Z,101261.81
2018-12-16T18:16:43.070Z,101268.38
2018-12-16T18:19:46.352Z,101258.35
2018-12-16T18:22:49.650Z,101263.59
2018-12-16T18:25:52.983Z,101269.34
2018-12-16T18:28:56.247Z,101265.16
2018-12-16T18:31:59.440Z,101273.50
2018-12-16T18:35:02.840Z,101274.11
2018-12-16T18:38:06.238Z,101278.58
2018-12-16T18:41:09.659Z,101277.53
2018-12-16T18:44:13.084Z,101278.98
2018-12-16T18:47:16.316Z,101284.08
2018-12-16T18:50:20.977Z,101286.30
2018-12-16T18:53:24.456Z,101272.41
2018-12-16T18:56:27.791Z,101288.89
2018-12-16T18:59:31.148Z,101292.05
2018-12-16T19:02:34.516Z,101300.45
2018-12-16T19:05:37.762Z,101293.39
2018-12-16T19:08:41.031Z,101302.52
2018-12-16T19:11:44.370Z,101299.25
2018-12-16T19:14:47.666Z,101304.86
2018-12-16T19:17:51.066Z,101293.26
2018-12-16T19:20:54.486Z,101294.80
2018-12-16T19:23:57.795Z,101296.74
2018-12-16T19:27:01.202Z,101302.20
2018-12-16T19:30:05.025Z,101301.84
2018-12-16T19:33:08.382Z,101316.03
2018-12-16T19:36:11.875Z,101316.17
2018-12-16T19:39:15.322Z,101317.31
2018-12-16T19:42:19.836Z,101318.03
2018-12-16T19:45:24.145Z,101314.75
2018-12-16T19:48:28.978Z,101321.35
2018-12-16T19:51:33.785Z,101319.06
2018-12-16T19:54:37.280Z,101326.94
2018-12-16T19:57:40.619Z,101323.38
2018-12-16T20:00:44.025Z,101329.80
2018-12-16T20:03:52.868Z,101335.77
2018-12-16T20:06:56.332Z,101338.00
2018-12-16T20:09:59.837Z,101342.93
2018-12-16T20:13:03.271Z,101337.16
2018-12-16T20:16:06.677Z,101331.92
2018-12-16T20:19:10.201Z,101330.31
2018-12-16T20:22:15.577Z,101328.37
2018-12-16T20:25:19.372Z,101327.22
2018-12-16T20:28:22.874Z,101330.91
2018-12-16T20:31:26.526Z,101319.77
2018-12-16T20:34:31.533Z,101320.66
2018-12-16T20:37:36.350Z,101327.41
2018-12-16T20:40:39.915Z,101330.05
2018-12-16T20:43:43.412Z,101329.73
2018-12-16T20:46:46.761Z,101336.27
2018-12-16T20:49:50.438Z,101339.61
2018-12-16T20:52:53.806Z,101335.98
2018-12-16T20:55:57.348Z,101336.36
2018-12-16T20:59:00.927Z,101338.59
2018-12-16T21:02:04.418Z,101339.80
2018-12-16T21:05:07.833Z,101339.90
2018-12-16T21:08:11.059Z,101343.47
2018-12-16T21:11:19.700Z,101349.58
2018-12-16T21:14:29.570Z,101346.02
2018-12-16T21:17:38.777Z,101343.81
2018-12-16T21:20:42.164Z,101349.42
2018-12-16T21:23:45.436Z,101350.09
2018-12-16T21:26:51.986Z,101347.61
2018-12-16T21:29:56.009Z,101348.79
2018-12-16T21:33:00.617Z,101344.84
2018-12-16T21:36:04.052Z,101345.51
2018-12-16T21:39:08.072Z,101351.24
2018-12-16T21:42:13.185Z,101347.61
2018-12-16T21:45:16.390Z,101357.45
2018-12-16T21:48:19.574Z,101352.58
2018-12-16T21:51:22.787Z,101358.73
2018-12-16T21:54:26.025Z,101353.22
2018-12-16T21:57:33.100Z,101358.47
2018-12-16T22:00:35.326Z,101357.55
2018-12-16T22:03:38.542Z,101366.95
2018-12-16T22:06:41.733Z,101366.19
2018-12-16T22:09:47.654Z,101372.43
2018-12-16T22:12:50.932Z,101372.87
2018-12-16T22:15:54.276Z,101375.64
2018-12-16T22:18:57.520Z,101377.44
2018-12-16T22:22:00.824Z,101381.20
2018-12-16T22:25:04.168Z,101378.16
2018-12-16T22:28:07.456Z,101379.13
2018-12-16T22:31:10.668Z,101380.48
2018-12-16T22:34:13.860Z,101381.73
2018-12-16T22:37:17.019Z,101381.12
2018-12-16T22:40:20.708Z,101388.78
2018-12-16T22:43:24.076Z,101397.67
2018-12-16T22:46:28.074Z,101396.11
2018-12-16T22:49:31.331Z,101401.11
2018-12-16T22:52:34.754Z,101399.80
2018-12-16T22:55:38.217Z,101399.48
2018-12-16T22:58:41.467Z,101394.58
2018-12-16T23:01:45.753Z,101406.53
2018-12-16T23:04:48.975Z,101393.50
2018-12-16T23:07:52.158Z,101399.77
2018-12-16T23:10:55.349Z,101393.56
2018-12-16T23:13:58.529Z,101396.11
2018-12-16T23:17:01.849Z,101395.70
2018-12-16T23:20:11.154Z,101394.45
2018-12-16T23:23:15.393Z,101399.94
2018-12-16T23:26:19.823Z,101405.86
2018-12-16T23:29:23.049Z,101404.17
2018-12-16T23:32:27.453Z,101406.30
2018-12-16T23:35:30.737Z,101393.88
2018-12-16T23:38:33.910Z,101391.02
2018-12-16T23:41:37.395Z,101397.73
2018-12-16T23:44:41.622Z,101394.86
2018-12-16T23:47:45.400Z,101391.65
2018-12-16T23:50:48.651Z,101386.42
2018-12-16T23:53:52.676Z,101392.92
2018-12-16T23:56:56.078Z,101377.81
2018-12-16T23:59:59.645Z,101383.33
